createdAt,value
2023-04-24T00:01:04.502Z,113.80
2023-04-24T00:03:09.348Z,143.48
2023-04-24T00:05:14.878Z,78.72
2023-04-24T00:07:17.716Z,95.43
2023-04-24T00:09:22.182Z,187.45
2023-04-24T00:11:23.719Z,51.97
2023-04-24T00:13:25.387Z,126.30
2023-04-24T00:15:29.938Z,36.95
2023-04-24T00:17:31.638Z,255.82
2023-04-24T00:19:36.180Z,345.27
2023-04-24T00:21:56.444Z,264.42
2023-04-24T00:23:57.976Z,512.25
2023-04-24T00:25:59.452Z,202.32
2023-04-24T00:28:01.070Z,176.57
2023-04-24T00:30:02.691Z,452.98
2023-04-24T00:32:04.149Z,15.77
2023-04-24T00:34:24.392Z,398.23
2023-04-24T00:36:28.596Z,203.32
2023-04-24T00:38:30.102Z,301.08
2023-04-24T00:40:34.444Z,304.45
2023-04-24T00:42:38.848Z,404.92
2023-04-24T00:46:44.212Z,478.42
2023-04-24T00:48:46.108Z,458.27
2023-04-24T00:50:47.807Z,519.03
2023-04-24T00:52:49.509Z,488.58
2023-04-24T00:54:51.169Z,350.48
2023-04-24T00:56:53.185Z,448.50
2023-04-24T00:58:57.511Z,263.98
2023-04-24T01:01:03.528Z,304.42
2023-04-24T01:03:08.284Z,331.50
2023-04-24T01:05:09.880Z,398.65
2023-04-24T01:09:35.916Z,407.08
2023-04-24T01:11:41.110Z,384.67
2023-04-24T01:13:42.616Z,400.13
2023-04-24T01:15:44.125Z,438.42
2023-04-24T01:17:46.208Z,439.42
2023-04-24T01:19:50.670Z,307.20
2023-04-24T01:21:58.068Z,458.75
2023-04-24T01:23:59.572Z,415.38
2023-04-24T01:26:04.160Z,500.65
2023-04-24T01:28:08.288Z,431.08
2023-04-24T01:30:13.274Z,495.45
2023-04-24T01:32:15.256Z,441.38
2023-04-24T01:34:35.604Z,410.77
2023-04-24T01:36:37.476Z,263.52
2023-04-24T01:38:39.217Z,368.48
2023-04-24T01:40:43.503Z,269.20
2023-04-24T01:42:44.959Z,419.60
2023-04-24T01:44:49.381Z,460.75
2023-04-24T01:49:14.936Z,369.38
2023-04-24T01:51:19.059Z,464.90
2023-04-24T01:53:20.722Z,415.80
2023-04-24T01:55:28.858Z,452.90
2023-04-24T01:57:42.473Z,361.30
2023-04-24T01:59:59.008Z,426.48
2023-04-24T02:02:16.150Z,283.48
2023-04-24T02:04:31.133Z,333.92
2023-04-24T02:06:43.999Z,378.37
2023-04-24T02:08:55.625Z,289.80
2023-04-24T02:11:12.460Z,461.33
2023-04-24T02:13:24.634Z,336.83
2023-04-24T02:15:40.982Z,259.88
2023-04-24T02:17:51.828Z,320.00
2023-04-24T02:20:07.029Z,460.88
2023-04-24T02:22:23.050Z,353.17
2023-04-24T02:24:40.768Z,373.98
2023-04-24T02:27:12.890Z,268.60
2023-04-24T02:29:30.169Z,295.60
2023-04-24T02:31:34.838Z,254.20
2023-04-24T02:33:39.460Z,417.25
2023-04-24T02:35:40.844Z,372.10
2023-04-24T02:37:42.244Z,455.52
2023-04-24T02:39:44.060Z,486.48
2023-04-24T02:41:45.887Z,306.90
2023-04-24T02:43:47.294Z,466.13
2023-04-24T02:45:54.682Z,428.00
2023-04-24T02:47:56.421Z,455.52
2023-04-24T02:49:58.041Z,407.98
2023-04-24T02:51:59.490Z,378.98
2023-04-24T02:54:00.978Z,377.05
2023-04-24T02:56:02.425Z,379.33
2023-04-24T03:00:09.972Z,318.98
2023-04-24T03:02:14.358Z,362.58
2023-04-24T03:04:21.343Z,337.20
2023-04-24T03:06:41.798Z,278.65
2023-04-24T03:08:43.285Z,342.40
2023-04-24T03:10:46.845Z,251.60
2023-04-24T03:12:56.061Z,375.30
2023-04-24T03:15:00.433Z,238.77
2023-04-24T03:17:01.913Z,310.48
2023-04-24T03:19:03.513Z,236.45
2023-04-24T03:21:05.015Z,282.33
2023-04-24T03:23:09.110Z,210.52
2023-04-24T03:25:13.504Z,290.20
2023-04-24T03:27:14.948Z,353.95
2023-04-24T03:31:23.488Z,423.90
2023-04-24T03:33:25.003Z,387.48
2023-04-24T03:35:29.006Z,418.77
2023-04-24T03:37:30.509Z,334.52
2023-04-24T03:39:31.893Z,216.80
2023-04-24T03:41:33.493Z,221.95
2023-04-24T03:43:35.597Z,395.50
2023-04-24T03:45:39.874Z,392.10
2023-04-24T03:47:41.418Z,421.83
2023-04-24T03:49:45.715Z,436.50
2023-04-24T03:51:47.112Z,449.77
2023-04-24T03:53:48.741Z,415.00
2023-04-24T03:55:50.169Z,301.33
2023-04-24T03:57:54.355Z,341.98
2023-04-24T03:59:58.703Z,347.02
2023-04-24T04:02:00.172Z,441.20
2023-04-24T04:04:05.117Z,316.23
2023-04-24T04:06:06.627Z,148.25
2023-04-24T04:08:08.022Z,336.58
2023-04-24T04:10:12.042Z,281.60
2023-04-24T04:12:32.128Z,209.18
2023-04-24T04:14:36.184Z,331.23
2023-04-24T04:16:40.482Z,366.63
2023-04-24T04:18:45.121Z,358.40
2023-04-24T04:20:46.531Z,423.20
2023-04-24T04:22:51.051Z,273.33
2023-04-24T04:24:55.328Z,440.55
2023-04-24T04:27:00.305Z,361.15
2023-04-24T04:29:04.645Z,408.80
2023-04-24T04:31:24.748Z,356.17
2023-04-24T04:33:28.918Z,375.23
2023-04-24T04:35:53.120Z,331.60
2023-04-24T04:37:54.579Z,243.00
2023-04-24T04:42:03.067Z,152.87
2023-04-24T04:44:07.503Z,183.73
2023-04-24T04:46:12.277Z,419.58
2023-04-24T04:48:14.866Z,302.60
2023-04-24T04:50:35.584Z,14.98
2023-04-24T04:52:39.657Z,18.23
2023-04-24T04:54:41.276Z,494.98
2023-04-24T04:58:49.489Z,14.55
2023-04-24T05:00:54.128Z,15.35
2023-04-24T05:03:06.197Z,17.02
2023-04-24T05:05:22.755Z,408.60
2023-04-24T05:07:24.313Z,492.63
2023-04-24T05:09:30.336Z,472.20
2023-04-24T05:11:34.945Z,12.77
2023-04-24T05:13:40.687Z,506.60
2023-04-24T05:15:42.877Z,167.77
2023-04-24T05:17:44.427Z,506.63
2023-04-24T05:19:46.376Z,521.65
2023-04-24T05:21:48.382Z,517.50
2023-04-24T05:24:09.050Z,520.58
2023-04-24T05:26:14.108Z,510.77
2023-04-24T05:28:18.235Z,515.10
2023-04-24T05:30:20.236Z,489.80
2023-04-24T05:32:21.718Z,493.77
2023-04-24T05:34:23.310Z,485.88
2023-04-24T05:36:24.909Z,489.92
2023-04-24T05:38:26.580Z,498.98
2023-04-24T05:40:31.182Z,493.75
2023-04-24T05:42:35.774Z,476.80
2023-04-24T05:44:37.249Z,468.23
2023-04-24T05:46:41.462Z,487.83
2023-04-24T05:48:43.079Z,481.58
2023-04-24T05:50:44.497Z,481.15
2023-04-24T05:54:50.251Z,494.05
2023-04-24T05:56:56.357Z,499.90
2023-04-24T05:59:01.082Z,496.60
2023-04-24T06:01:05.138Z,504.55
2023-04-24T06:03:09.696Z,491.25
2023-04-24T06:05:14.282Z,493.02
2023-04-24T06:07:18.483Z,497.20
2023-04-24T06:09:23.193Z,496.80
2023-04-24T06:11:27.591Z,496.27
2023-04-24T06:13:32.067Z,491.17
2023-04-24T06:15:36.798Z,499.70
2023-04-24T06:17:38.595Z,490.27
2023-04-24T06:19:40.205Z,509.77
2023-04-24T06:21:41.783Z,518.88
2023-04-24T06:24:01.964Z,494.05
2023-04-24T06:26:03.436Z,505.60
2023-04-24T06:30:09.367Z,520.40
2023-04-24T06:32:11.048Z,535.10
2023-04-24T06:34:12.461Z,548.90
2023-04-24T06:36:33.752Z,649.75
2023-04-24T06:38:35.559Z,733.67
2023-04-24T06:40:40.253Z,803.55
2023-04-24T06:42:42.093Z,847.60
2023-04-24T06:44:46.524Z,865.30
2023-04-24T06:46:47.976Z,868.63
2023-04-24T06:48:52.207Z,899.13
2023-04-24T06:50:53.683Z,902.95
2023-04-24T06:55:03.559Z,931.00
2023-04-24T06:57:05.064Z,928.13
2023-04-24T06:59:25.749Z,936.63
2023-04-24T07:01:27.262Z,994.80
2023-04-24T07:03:28.976Z,1018.08
2023-04-24T07:05:30.805Z,1040.30
2023-04-24T07:07:35.645Z,1083.57
2023-04-24T07:09:39.735Z,1085.45
2023-04-24T07:11:59.985Z,1110.63
2023-04-24T07:14:04.260Z,1119.88
2023-04-24T07:16:06.121Z,1100.03
2023-04-24T07:18:10.351Z,1103.78
2023-04-24T07:20:30.618Z,1100.60
2023-04-24T07:22:32.166Z,1104.80
2023-04-24T07:24:33.777Z,1091.63
2023-04-24T07:26:35.392Z,1104.30
2023-04-24T07:28:39.862Z,1136.70
2023-04-24T07:30:44.295Z,1161.05
2023-04-24T07:32:45.890Z,1176.15
2023-04-24T07:34:50.509Z,1099.10
2023-04-24T07:36:54.904Z,1095.80
2023-04-24T07:38:57.561Z,1180.70
2023-04-24T07:40:59.175Z,1135.72
2023-04-24T07:43:03.484Z,985.10
2023-04-24T07:45:05.491Z,866.35
2023-04-24T07:47:25.410Z,1056.68
2023-04-24T07:49:29.892Z,1139.72
2023-04-24T07:51:39.109Z,1142.68
2023-04-24T07:53:43.858Z,1099.80
2023-04-24T07:55:45.297Z,1127.72
2023-04-24T07:57:46.689Z,809.67
2023-04-24T07:59:48.056Z,792.50
2023-04-24T08:01:52.305Z,900.40
2023-04-24T08:03:56.165Z,628.00
2023-04-24T08:06:01.738Z,730.70
2023-04-24T08:08:08.378Z,671.78
2023-04-24T08:10:13.552Z,745.63
2023-04-24T08:12:20.217Z,794.28
2023-04-24T08:14:27.215Z,547.00
2023-04-24T08:18:35.812Z,496.80
2023-04-24T08:20:42.624Z,713.75
2023-04-24T08:22:50.353Z,699.53
2023-04-24T08:24:54.133Z,964.60
2023-04-24T08:27:00.741Z,1117.50
2023-04-24T08:31:06.361Z,1128.22
2023-04-24T08:33:12.812Z,1148.90
2023-04-24T08:35:15.510Z,1190.22
2023-04-24T08:37:18.445Z,1219.77
2023-04-24T08:39:22.478Z,1239.57
2023-04-24T08:41:28.601Z,1257.18
2023-04-24T08:43:35.422Z,1261.93
2023-04-24T08:45:37.133Z,1262.75
2023-04-24T08:47:42.122Z,1257.28
2023-04-24T08:49:48.897Z,1238.47
2023-04-24T08:51:50.683Z,1220.30
2023-04-24T08:53:54.744Z,1210.05
2023-04-24T08:55:59.250Z,1189.97
2023-04-24T08:58:00.781Z,1186.70
2023-04-24T09:00:05.718Z,1182.85
2023-04-24T09:02:10.900Z,1159.30
2023-04-24T09:04:14.454Z,1144.65
2023-04-24T09:06:17.114Z,1127.70
2023-04-24T09:08:24.508Z,1104.38
2023-04-24T09:10:31.613Z,1073.38
2023-04-24T09:12:52.014Z,1038.07
2023-04-24T09:14:53.895Z,1038.00
2023-04-24T09:16:58.595Z,1017.03
2023-04-24T09:19:00.225Z,1019.10
2023-04-24T09:21:07.565Z,1005.13
2023-04-24T09:23:17.256Z,990.47
2023-04-24T09:25:22.321Z,986.53
2023-04-24T09:27:28.967Z,975.72
2023-04-24T09:29:30.493Z,965.25
2023-04-24T09:31:50.536Z,975.20
2023-04-24T09:34:10.647Z,983.97
2023-04-24T09:36:18.417Z,1011.83
2023-04-24T09:38:28.518Z,1016.30
2023-04-24T09:40:29.970Z,1037.97
2023-04-24T09:42:34.155Z,1046.65
2023-04-24T09:44:35.714Z,1068.82
2023-04-24T09:46:40.226Z,1075.22
2023-04-24T09:48:41.798Z,1100.97
2023-04-24T09:50:53.038Z,1108.35
2023-04-24T09:53:13.171Z,1088.40
2023-04-24T09:55:17.994Z,1092.75
2023-04-24T09:57:22.104Z,1101.85
2023-04-24T09:59:26.674Z,1064.10
2023-04-24T10:01:33.929Z,1068.38
2023-04-24T10:03:35.764Z,1066.78
2023-04-24T10:05:37.740Z,1066.97
2023-04-24T10:07:42.386Z,1065.35
2023-04-24T10:09:44.381Z,1061.78
2023-04-24T10:11:47.301Z,1038.90
2023-04-24T10:13:53.001Z,1035.10
2023-04-24T10:15:57.611Z,995.03
2023-04-24T10:18:03.103Z,993.60
2023-04-24T10:20:08.130Z,970.25
2023-04-24T10:22:12.638Z,974.33
2023-04-24T10:24:17.706Z,958.75
2023-04-24T10:26:20.341Z,956.83
2023-04-24T10:28:22.034Z,933.60
2023-04-24T10:30:23.483Z,911.47
2023-04-24T10:32:24.995Z,877.22
2023-04-24T10:34:45.054Z,868.50
2023-04-24T10:36:49.088Z,881.67
2023-04-24T10:38:53.798Z,880.72
2023-04-24T10:41:11.600Z,898.35
2023-04-24T10:43:17.386Z,861.83
2023-04-24T10:45:23.133Z,876.42
2023-04-24T10:47:24.850Z,847.10
2023-04-24T10:49:29.993Z,858.45
2023-04-24T10:51:51.129Z,855.90
2023-04-24T10:53:58.396Z,820.17
2023-04-24T10:56:06.358Z,793.83
2023-04-24T10:58:07.914Z,706.28
2023-04-24T11:00:13.545Z,684.13
2023-04-24T11:02:16.410Z,697.85
2023-04-24T11:04:29.635Z,703.38
2023-04-24T11:06:36.802Z,715.38
2023-04-24T11:08:44.823Z,693.38
2023-04-24T11:11:08.932Z,720.28
2023-04-24T11:13:10.979Z,702.35
2023-04-24T11:15:33.601Z,724.80
2023-04-24T11:17:39.160Z,735.30
2023-04-24T11:19:45.522Z,738.15
2023-04-24T11:21:57.031Z,721.17
2023-04-24T11:23:59.251Z,709.83
2023-04-24T11:26:24.706Z,710.30
2023-04-24T11:28:30.348Z,684.13
2023-04-24T11:30:34.028Z,666.10
2023-04-24T11:32:43.571Z,664.83
2023-04-24T11:34:53.629Z,657.13
2023-04-24T11:36:58.541Z,648.58
2023-04-24T11:39:01.213Z,656.92
2023-04-24T11:41:04.552Z,644.30
2023-04-24T11:43:08.005Z,658.40
2023-04-24T11:45:14.361Z,642.05
2023-04-24T11:47:20.431Z,655.60
2023-04-24T11:49:25.037Z,646.78
2023-04-24T11:51:31.261Z,616.38
2023-04-24T11:53:38.320Z,585.30
2023-04-24T11:55:42.709Z,575.85
2023-04-24T11:57:48.336Z,572.63
2023-04-24T11:59:50.392Z,565.47
2023-04-24T12:01:54.690Z,565.58
2023-04-24T12:04:00.940Z,567.58
2023-04-24T12:06:09.306Z,566.70
2023-04-24T12:08:27.608Z,560.38
2023-04-24T12:10:30.088Z,560.30
2023-04-24T12:12:52.237Z,557.67
2023-04-24T12:14:54.931Z,547.30
2023-04-24T12:16:56.744Z,552.47
2023-04-24T12:18:58.966Z,552.35
2023-04-24T12:21:22.086Z,541.92
2023-04-24T12:23:39.405Z,543.28
2023-04-24T12:25:42.030Z,548.75
2023-04-24T12:27:44.428Z,552.05
2023-04-24T12:29:56.833Z,552.60
2023-04-24T12:32:00.866Z,548.20
2023-04-24T12:34:05.436Z,553.67
2023-04-24T12:36:27.890Z,562.00
2023-04-24T12:38:32.332Z,549.22
2023-04-24T12:42:50.516Z,544.45
2023-04-24T12:44:57.065Z,527.65
2023-04-24T12:46:58.884Z,536.38
2023-04-24T12:49:00.832Z,549.72
2023-04-24T12:51:02.657Z,566.55
2023-04-24T12:53:07.344Z,554.25
2023-04-24T12:55:10.062Z,562.13
2023-04-24T12:57:14.725Z,562.35
2023-04-24T12:59:16.339Z,594.15
2023-04-24T13:01:17.793Z,541.03
2023-04-24T13:03:19.541Z,551.03
2023-04-24T13:05:22.026Z,567.60
2023-04-24T13:07:25.561Z,569.78
2023-04-24T13:09:27.009Z,568.30
2023-04-24T13:11:28.559Z,854.30
2023-04-24T13:13:32.578Z,580.53
2023-04-24T13:17:38.196Z,546.33
2023-04-24T13:19:40.848Z,818.55
2023-04-24T13:21:42.316Z,1871.75
2023-04-24T13:23:47.000Z,533.20
2023-04-24T13:25:51.747Z,532.00
2023-04-24T13:27:56.234Z,527.85
2023-04-24T13:30:00.360Z,531.47
2023-04-24T13:34:06.236Z,531.22
2023-04-24T13:36:27.280Z,588.70
2023-04-24T13:38:31.893Z,532.53
2023-04-24T13:40:33.938Z,542.88
2023-04-24T13:42:35.439Z,865.25
2023-04-24T13:44:39.869Z,753.03
2023-04-24T13:46:41.513Z,511.60
2023-04-24T13:48:46.029Z,524.72
2023-04-24T13:50:50.685Z,520.92
2023-04-24T13:52:52.532Z,543.97
2023-04-24T13:54:57.081Z,533.42
2023-04-24T13:57:04.920Z,525.20
2023-04-24T13:59:09.742Z,529.95
2023-04-24T14:01:11.554Z,546.25
2023-04-24T14:03:13.539Z,532.97
2023-04-24T14:05:18.313Z,532.05
2023-04-24T14:07:19.872Z,530.30
2023-04-24T14:09:21.498Z,502.20
2023-04-24T14:11:27.229Z,490.25
2023-04-24T14:13:31.591Z,10.88
2023-04-24T14:15:34.605Z,14.45
2023-04-24T14:17:38.946Z,14.25
2023-04-24T14:19:45.026Z,15.80
2023-04-24T14:21:58.676Z,15.77
2023-04-24T14:24:17.410Z,15.93
2023-04-24T14:26:25.080Z,17.77
2023-04-24T14:28:31.723Z,22.83
2023-04-24T14:30:40.373Z,26.73
2023-04-24T14:32:47.430Z,25.38
2023-04-24T14:34:53.813Z,13.98
2023-04-24T14:37:00.612Z,18.77
2023-04-24T14:39:09.069Z,18.85
2023-04-24T14:41:14.352Z,16.55
2023-04-24T14:43:24.952Z,14.68
2023-04-24T14:45:45.758Z,17.20
2023-04-24T14:47:51.119Z,23.45
2023-04-24T14:50:00.746Z,22.17
2023-04-24T14:52:04.133Z,19.55
2023-04-24T14:54:07.002Z,13.32
2023-04-24T14:56:12.467Z,17.92
2023-04-24T14:58:17.475Z,14.57
2023-04-24T15:00:19.414Z,26.08
2023-04-24T15:02:42.958Z,17.15
2023-04-24T15:05:03.730Z,12.40
2023-04-24T15:07:07.964Z,18.00
2023-04-24T15:09:09.716Z,19.60
2023-04-24T15:11:11.298Z,18.17
2023-04-24T15:13:12.876Z,23.45
2023-04-24T15:15:17.299Z,35.50
2023-04-24T15:17:18.833Z,36.53
2023-04-24T15:21:24.391Z,35.58
2023-04-24T15:25:29.884Z,17.20
2023-04-24T15:27:51.719Z,23.73
2023-04-24T15:29:56.024Z,20.13
2023-04-24T15:31:57.559Z,19.02
2023-04-24T15:33:59.004Z,20.48
2023-04-24T15:36:00.500Z,18.35
2023-04-24T15:40:25.450Z,13.18
2023-04-24T15:42:27.524Z,19.05
2023-04-24T15:44:28.956Z,17.63
2023-04-24T15:46:30.733Z,19.65
2023-04-24T15:48:35.432Z,13.35
2023-04-24T15:50:39.568Z,12.57
2023-04-24T15:54:47.944Z,14.05
2023-04-24T15:56:50.873Z,10.13
2023-04-24T15:58:55.461Z,10.48
2023-04-24T16:00:57.114Z,13.23
2023-04-24T16:02:59.119Z,13.02
2023-04-24T16:05:01.397Z,13.18
2023-04-24T16:07:05.742Z,11.30
2023-04-24T16:09:10.395Z,13.88
2023-04-24T16:11:11.961Z,9.65
2023-04-24T16:13:34.285Z,10.43
2023-04-24T16:15:39.150Z,13.82
2023-04-24T16:17:44.345Z,13.75
2023-04-24T16:19:48.901Z,8.57
2023-04-24T16:21:50.422Z,10.40
2023-04-24T16:23:51.831Z,13.77
2023-04-24T16:25:53.390Z,14.50
2023-04-24T16:27:54.916Z,15.25
2023-04-24T16:30:15.244Z,12.10
2023-04-24T16:32:17.253Z,8.68
2023-04-24T16:34:18.930Z,13.77
2023-04-24T16:36:23.516Z,11.50
2023-04-24T16:38:43.580Z,10.88
2023-04-24T16:40:47.678Z,9.15
2023-04-24T16:42:52.907Z,12.52
2023-04-24T16:44:57.274Z,12.82
2023-04-24T16:47:01.872Z,12.13
2023-04-24T16:49:23.641Z,12.90
2023-04-24T16:51:25.322Z,19.67
2023-04-24T16:53:30.038Z,12.00
2023-04-24T16:55:31.580Z,13.77
2023-04-24T16:57:36.407Z,13.32
2023-04-24T16:59:40.766Z,15.63
2023-04-24T17:01:42.257Z,17.27
2023-04-24T17:05:51.137Z,11.52
2023-04-24T17:07:55.747Z,12.40
2023-04-24T17:10:00.360Z,14.40
2023-04-24T17:12:04.619Z,11.77
2023-04-24T17:14:06.399Z,13.60
2023-04-24T17:16:26.846Z,15.02
2023-04-24T17:18:28.349Z,15.82
2023-04-24T17:22:34.049Z,15.25
2023-04-24T17:24:39.185Z,17.98
2023-04-24T17:26:43.496Z,10.85
2023-04-24T17:28:58.430Z,17.35
2023-04-24T17:31:13.933Z,12.52
2023-04-24T17:33:26.245Z,9.35
2023-04-24T17:35:36.917Z,10.30
2023-04-24T17:37:46.900Z,5.45
2023-04-24T17:39:51.124Z,24.15
2023-04-24T17:42:12.996Z,2.78
2023-04-24T17:44:23.224Z,3.88
2023-04-24T17:46:32.636Z,8.18
2023-04-24T17:48:38.741Z,21.48
2023-04-24T17:50:51.025Z,9.88
2023-04-24T17:53:03.475Z,12.32
2023-04-24T17:55:16.762Z,11.43
2023-04-24T17:57:26.305Z,27.42
2023-04-24T17:59:31.372Z,6.60
2023-04-24T18:01:40.038Z,536.35
2023-04-24T18:03:45.824Z,525.90
2023-04-24T18:05:48.161Z,517.10
2023-04-24T18:07:49.627Z,516.50
2023-04-24T18:09:51.350Z,515.42
2023-04-24T18:11:52.807Z,516.67
2023-04-24T18:13:56.887Z,506.58
2023-04-24T18:16:01.252Z,511.88
2023-04-24T18:18:03.310Z,505.15
2023-04-24T18:20:23.480Z,520.22
2023-04-24T18:22:27.784Z,515.22
2023-04-24T18:24:31.804Z,511.33
2023-04-24T18:26:33.305Z,512.47
2023-04-24T18:28:34.811Z,507.17
2023-04-24T18:30:39.274Z,507.70
2023-04-24T18:32:43.762Z,505.30
2023-04-24T18:34:45.284Z,508.65
2023-04-24T18:37:05.367Z,513.70
2023-04-24T18:39:06.855Z,506.90
2023-04-24T18:41:08.369Z,502.73
2023-04-24T18:43:09.887Z,508.20
2023-04-24T18:45:14.672Z,510.30
2023-04-24T18:47:19.634Z,502.58
2023-04-24T18:49:21.047Z,494.42
2023-04-24T18:51:53.020Z,504.00
2023-04-24T18:53:55.839Z,502.90
2023-04-24T18:55:57.342Z,507.23
2023-04-24T18:57:58.825Z,502.70
2023-04-24T19:00:19.022Z,501.00
2023-04-24T19:02:20.890Z,504.35
2023-04-24T19:04:25.434Z,509.00
2023-04-24T19:08:33.842Z,507.00
2023-04-24T19:10:36.692Z,505.52
2023-04-24T19:12:41.101Z,499.20
2023-04-24T19:14:42.548Z,505.73
2023-04-24T19:16:47.222Z,506.98
2023-04-24T19:19:07.455Z,500.38
2023-04-24T19:21:09.124Z,502.45
2023-04-24T19:23:10.604Z,508.55
2023-04-24T19:25:14.631Z,502.35
2023-04-24T19:27:18.596Z,499.73
2023-04-24T19:31:27.211Z,498.95
2023-04-24T19:33:31.221Z,502.58
2023-04-24T19:35:51.492Z,503.98
2023-04-24T19:39:57.114Z,501.20
2023-04-24T19:42:19.403Z,498.00
2023-04-24T19:44:27.552Z,498.05
2023-04-24T19:46:29.022Z,499.38
2023-04-24T19:48:33.394Z,497.48
2023-04-24T19:50:37.845Z,501.80
2023-04-24T19:52:39.445Z,497.38
2023-04-24T19:54:40.974Z,492.33
2023-04-24T19:56:42.710Z,492.92
2023-04-24T19:58:44.152Z,500.75
2023-04-24T20:01:05.911Z,499.38
2023-04-24T20:03:21.559Z,497.55
2023-04-24T20:05:30.362Z,494.70
2023-04-24T20:07:34.554Z,491.20
2023-04-24T20:09:36.047Z,493.98
2023-04-24T20:11:56.999Z,490.33
2023-04-24T20:13:58.662Z,490.33
2023-04-24T20:16:18.619Z,493.58
2023-04-24T20:18:21.300Z,493.35
2023-04-24T20:20:22.769Z,497.27
2023-04-24T20:22:27.495Z,508.30
2023-04-24T20:24:29.099Z,499.63
2023-04-24T20:26:33.313Z,491.27
2023-04-24T20:28:35.012Z,500.85
2023-04-24T20:30:38.092Z,503.25
2023-04-24T20:32:42.729Z,503.27
2023-04-24T20:34:48.764Z,503.20
2023-04-24T20:36:53.227Z,493.88
2023-04-24T20:38:58.312Z,494.88
2023-04-24T20:41:00.213Z,488.67
2023-04-24T20:43:04.275Z,490.17
2023-04-24T20:45:08.539Z,481.05
2023-04-24T20:47:10.308Z,487.70
2023-04-24T20:49:30.975Z,483.50
2023-04-24T20:51:35.432Z,486.20
2023-04-24T20:53:39.590Z,493.05
2023-04-24T20:55:44.207Z,483.38
2023-04-24T20:57:48.684Z,483.55
2023-04-24T20:59:52.957Z,485.40
2023-04-24T21:01:57.538Z,475.75
2023-04-24T21:04:01.930Z,480.92
2023-04-24T21:06:22.354Z,483.92
2023-04-24T21:08:27.052Z,484.10
2023-04-24T21:10:31.773Z,476.63
2023-04-24T21:12:33.276Z,479.23
2023-04-24T21:14:37.537Z,480.55
2023-04-24T21:16:39.094Z,482.83
2023-04-24T21:18:43.360Z,479.98
2023-04-24T21:20:47.841Z,486.48
2023-04-24T21:24:56.230Z,480.88
2023-04-24T21:26:57.665Z,475.80
2023-04-24T21:29:02.124Z,484.98
2023-04-24T21:31:03.603Z,473.15
2023-04-24T21:33:08.161Z,475.00
2023-04-24T21:35:09.836Z,469.55
2023-04-24T21:37:30.631Z,471.15
2023-04-24T21:39:34.657Z,466.25
2023-04-24T21:41:38.997Z,472.35
2023-04-24T21:43:44.754Z,463.77
2023-04-24T21:45:50.264Z,460.42
2023-04-24T21:47:54.383Z,462.10
2023-04-24T21:49:55.967Z,461.50
2023-04-24T21:51:57.463Z,454.30
2023-04-24T21:56:06.173Z,458.10
2023-04-24T21:58:07.634Z,452.47
2023-04-24T22:00:12.068Z,455.93
2023-04-24T22:02:13.748Z,451.00
2023-04-24T22:04:18.401Z,455.83
2023-04-24T22:06:22.550Z,449.87
2023-04-24T22:08:26.937Z,448.20
2023-04-24T22:10:28.536Z,446.80
2023-04-24T22:12:32.951Z,451.63
2023-04-24T22:14:34.442Z,455.57
2023-04-24T22:16:36.020Z,453.97
2023-04-24T22:18:46.632Z,454.00
2023-04-24T22:20:49.243Z,451.73
2023-04-24T22:22:56.353Z,454.47
2023-04-24T22:25:04.350Z,466.40
2023-04-24T22:27:11.805Z,457.20
2023-04-24T22:29:16.213Z,454.30
2023-04-24T22:31:17.813Z,457.50
2023-04-24T22:33:19.327Z,458.00
2023-04-24T22:35:20.838Z,455.17
2023-04-24T22:37:40.664Z,455.73
2023-04-24T22:39:44.689Z,451.23
2023-04-24T22:42:04.833Z,456.37
2023-04-24T22:44:06.340Z,448.80
2023-04-24T22:48:14.871Z,459.83
2023-04-24T22:50:20.368Z,455.90
2023-04-24T22:52:21.848Z,454.77
2023-04-24T22:54:23.355Z,464.70
2023-04-24T22:56:27.379Z,462.88
2023-04-24T22:58:29.299Z,460.87
2023-04-24T23:00:30.819Z,460.93
2023-04-24T23:04:39.133Z,465.67
2023-04-24T23:06:46.516Z,455.50
2023-04-24T23:08:47.955Z,464.27
2023-04-24T23:10:55.557Z,462.23
2023-04-24T23:12:57.066Z,456.40
2023-04-24T23:17:05.904Z,451.70
2023-04-24T23:19:07.354Z,450.83
2023-04-24T23:21:27.535Z,451.53
2023-04-24T23:23:32.240Z,454.03
2023-04-24T23:25:33.856Z,451.27
2023-04-24T23:27:35.705Z,457.40
2023-04-24T23:29:39.916Z,453.83
2023-04-24T23:31:41.418Z,461.93
2023-04-24T23:33:49.556Z,451.27
2023-04-24T23:35:55.968Z,454.23
2023-04-24T23:38:16.435Z,458.80
2023-04-24T23:40:19.992Z,452.67
2023-04-24T23:44:27.522Z,456.23
2023-04-24T23:46:34.584Z,456.70
2023-04-24T23:48:38.696Z,456.70
2023-04-24T23:50:42.978Z,453.38
2023-04-24T23:52:46.978Z,450.80
2023-04-24T23:54:53.824Z,450.53
2023-04-24T23:57:00.882Z,448.07
2023-04-24T23:59:07.871Z,450.40
